Monday, July 25, 2016, 5:53 AM EDT

KRDG, Reading Regional Airport

Location: Reading, PA, United States Lat: 40.367
Local Time: 5:53 AM EDT ( 9:53 GMT) Lon: -75.967
Time Zone: US/Eastern Elev: 344 ft

Show me the last for .
Show Decoded

2016-07-25 04:54 METAR KRDG 250854Z AUTO 00000KT 10SM -RA SCT110 24/21 A2994 RMK AO2 LTG DSNT SE
                 RAE0756B46 SLP141 P0000 60000 T02440211 50003 =
2016-07-25 03:54 METAR KRDG 250754Z AUTO 21005KT 10SM -RA FEW080 OVC110 25/21 A2995 RMK AO2 LTG
                 DSNT E AND S RAB47 SLP142 P0000 T02500211 =
2016-07-25 02:54 METAR KRDG 250654Z AUTO 29004KT 10SM SCT070 OVC100 26/21 A2995 RMK AO2 SLP142
                 T02560206 =
2016-07-25 01:54 METAR KRDG 250554Z AUTO 00000KT 10SM CLR 27/19 A2994 RMK AO2 SLP138 60000
                 T02670194 10306 20256 58016 =
2016-07-25 00:54 METAR KRDG 250454Z AUTO 20005KT 10SM FEW042 SCT110 27/20 A2996 RMK AO2
                 RAB0359E49 SLP146 P0000 T02670200 403560194 =
2016-07-24 23:54 METAR KRDG 250354Z AUTO 00000KT 10SM CLR 26/20 A2997 RMK AO2 RAE0259 SLP150
                 P0000 T02610200 =
2016-07-24 22:54 METAR KRDG 250254Z AUTO 19003KT 10SM -RA FEW120 28/18 A2998 RMK AO2 RAB31 SLP155
                 P0000 60000 T02780183 51015 =
2016-07-24 21:54 METAR KRDG 250154Z AUTO 00000KT 10SM BKN090 BKN110 29/18 A2998 RMK AO2 SLP152
                 T02940178 =
2016-07-24 20:54 METAR KRDG 250054Z AUTO 18005KT 10SM FEW080 29/18 A2995 RMK AO2 SLP144 T02940183
                 =
2016-07-24 19:54 METAR KRDG 242354Z AUTO 18008KT 10SM CLR 31/18 A2994 RMK AO2 SLP140 T03060183
                 10356 20306 51001 =
2016-07-24 18:54 METAR KRDG 242254Z AUTO 17006KT 10SM CLR 32/18 A2994 RMK AO2 SLP140 T03220178 =
2016-07-24 17:54 METAR KRDG 242154Z AUTO 22009KT 10SM CLR 33/17 A2994 RMK AO2 SLP141 T03280172 =
2016-07-24 16:54 METAR KRDG 242054Z AUTO 23009KT 10SM CLR 34/16 A2994 RMK AO2 SLP139 T03390161
                 56012 =
2016-07-24 15:54 METAR KRDG 241954Z AUTO 20006KT 10SM CLR 35/16 A2994 RMK AO2 SLP141 T03500156 =
2016-07-24 14:54 METAR KRDG 241854Z AUTO 20010G17KT 10SM CLR 34/16 A2996 RMK AO2 SLP146 T03390156
                 =
2016-07-24 13:54 METAR KRDG 241754Z 18008KT 130V230 10SM CLR 34/13 A2997 RMK AO2 SLP151 T03390133
                 10350 20228 58005 =
2016-07-24 12:54 METAR KRDG 241654Z 30011KT 10SM CLR 34/13 A2999 RMK AO2 SLP157 T03440133 =
2016-07-24 11:54 METAR KRDG 241554Z 19004KT 10SM CLR 32/14 A2999 RMK AO2 SLP158 T03220144 =
2016-07-24 10:54 METAR KRDG 241454Z 12004KT 10SM CLR 30/15 A2999 RMK AO2 SLP157 T03000150 58008 =
2016-07-24 09:54 METAR KRDG 241354Z 36004KT 10SM CLR 29/14 A3000 RMK AO2 SLP161 T02890144 =
2016-07-24 08:54 METAR KRDG 241254Z 00000KT 10SM CLR 26/17 A3001 RMK AO2 SLP164 T02610167 =
2016-07-24 07:54 METAR KRDG 241154Z 00000KT 10SM CLR 23/19 A3001 RMK AO2 SLP166 T02280189 10228
                 20194 51017 =
2016-07-24 06:54 METAR KRDG 241054Z 00000KT 10SM CLR 20/18 A3000 RMK AO2 SLP161 T02000178 =
2016-07-24 05:54 METAR KRDG 240954Z 00000KT 10SM CLR 20/18 A2998 RMK AO2 SLP153 T02000178 =

Support USWX by starting your Amazon purchase here.